PST,Max TemperatureF,Mean TemperatureF,Min TemperatureF,Max Dew PointF,MeanDew PointF,Min DewpointF,Max Humidity, Mean Humidity, Min Humidity, Max Sea Level PressureIn, Mean Sea Level PressureIn, Min Sea Level PressureIn, Max VisibilityMiles, Mean VisibilityMiles, Min VisibilityMiles, Max Wind SpeedMPH, Mean Wind SpeedMPH, Max Gust SpeedMPH,PrecipitationIn, CloudCover, Events, WindDirDegrees
2013-1-1,39,32,26,30,28,25,100,86,61,30.46,30.39,30.34,10,9,6,9,2,,0.00,0,,11
2013-1-2,44,34,23,28,25,19,100,84,53,30.33,30.26,30.19,10,9,2,8,1,,0.00,0,,314
2013-1-3,37,29,21,34,26,18,100,83,65,30.27,30.19,30.15,10,10,6,9,1,,0.00,4,,147
2013-1-4,53,43,33,45,39,32,100,92,67,30.34,30.25,30.19,10,5,0,10,3,,0.00,6,,44
2013-1-5,41,38,35,39,36,32,100,89,75,30.23,30.19,30.18,0,0,0,6,2,,0.00,8,,39
2013-1-6,46,42,37,43,39,36,100,93,87,30.25,30.19,30.12,,,,14,1,,0.00,8,,161
2013-1-7,57,50,44,52,45,43,100,90,77,30.25,30.17,30.07,,,,20,13,24,0.06,7,,172
2013-1-8,55,50,46,52,46,43,100,89,71,30.24,30.12,29.95,10,10,10,18,11,23,0.00,5,,164
2013-1-9,51,43,35,45,38,34,100,87,71,30.02,29.94,29.77,10,10,7,20,7,23,0.27,5,,210
2013-1-10,42,37,32,37,34,30,100,89,76,30.14,30.09,30.01,10,10,9,12,4,,0.07,6,,251
2013-1-11,41,34,28,34,30,25,93,85,53,30.32,30.24,30.14,10,10,1,12,5,,0.00,3,,336
2013-1-12,35,29,23,30,26,21,100,94,75,30.42,30.35,30.31,10,4,0,7,1,,0.00,5,,18
2013-1-13,30,28,26,27,26,25,100,92,80,30.51,30.46,30.41,10,7,0,6,3,,0.00,8,,347
2013-1-14,37,32,26,32,27,25,100,85,70,30.58,30.55,30.51,10,9,5,6,1,,0.00,8,,136
2013-1-15,39,34,30,36,32,28,93,89,81,30.66,30.63,30.56,10,9,6,9,3,,0.00,8,,20
2013-1-16,35,34,32,34,32,30,100,92,87,30.66,30.59,30.51,7,3,0,7,2,,0.00,8,,11
2013-1-17,33,32,30,32,30,28,100,93,87,30.50,30.41,30.34,6,2,0,6,2,,0.00,8,,10
2013-1-18,35,32,30,34,31,28,100,95,87,30.34,30.31,30.29,8,1,0,4,0,,0.00,8,,347
2013-1-19,33,30,28,32,29,27,100,96,87,30.36,30.32,30.30,5,1,0,5,1,,0.00,8,,45
2013-1-20,30,29,28,30,28,27,100,95,93,30.37,30.32,30.27,6,1,0,5,0,,0.00,8,,344
2013-1-21,30,28,26,30,28,25,100,96,93,30.29,30.23,30.18,5,1,0,5,0,,0.00,8,,6
2013-1-22,30,28,26,30,28,25,100,96,86,30.18,30.07,29.96,7,2,0,5,0,,0.00,8,,89
2013-1-23,35,32,30,36,32,28,100,95,93,30.21,30.01,29.91,8,4,0,7,1,,0.23,8,,160
2013-1-24,41,36,30,39,35,28,100,96,87,30.23,30.18,30.13,10,4,0,8,1,,0.11,8,,105
2013-1-25,53,43,33,50,42,30,100,93,77,30.15,30.06,29.99,10,7,0,12,2,,0.02,5,,188
2013-1-26,46,40,33,41,37,34,100,90,71,30.13,30.03,29.98,10,10,8,14,4,,0.11,7,,168
2013-1-27,42,36,30,41,36,30,100,93,87,30.19,30.14,30.09,10,10,3,12,4,,0.05,7,,173
2013-1-28,44,40,37,43,39,18,93,88,36,30.28,30.22,30.13,10,10,9,12,5,17,0.01,8,,192
2013-1-29,46,40,35,45,41,34,100,90,81,30.53,30.43,30.28,10,10,3,10,5,,0.00,7,,182
2013-1-30,50,44,39,48,43,37,100,91,82,30.53,30.50,30.47,10,10,4,17,8,,0.00,8,,174
2013-1-31,53,48,42,46,43,41,100,89,67,30.47,30.42,30.36,10,10,3,5,1,,0.00,7,,204